Time;durP1;ratioP1;P1;durP2;ratioP2;P2;SDS_P1;SDS_P2;PMS_P1;PMS_P2;Temp;Humidity;BMP_temperature;BMP_pressure;BME280_temperature;BME280_humidity;BME280_pressure;Samples;Min_cycle;Max_cycle;Signal;HPM_P1;HPM_P2
2022/03/23 00:01:09;;;;;;;10.43;5.82;;;1.70;97.80;;;;;;5056318;28;20037;-32
2022/03/23 00:03:35;;;;;;;6.82;4.53;;;1.60;99.10;;;;;;5057974;28;20159;-32
2022/03/23 00:06:02;;;;;;;11.20;5.70;;;1.40;99.90;;;;;;5057286;28;20025;-32
2022/03/23 00:08:27;;;;;;;9.57;5.35;;;1.20;99.90;;;;;;5055667;28;20028;-32
2022/03/23 00:10:53;;;;;;;10.13;5.43;;;1.10;99.90;;;;;;5058653;28;20032;-32
2022/03/23 00:13:19;;;;;;;10.05;5.57;;;0.80;99.90;;;;;;5055315;28;20040;-32
2022/03/23 00:15:45;;;;;;;9.40;5.15;;;0.60;99.90;;;;;;5054063;28;20020;-32
2022/03/23 00:18:11;;;;;;;8.63;4.63;;;0.70;99.90;;;;;;5057814;28;20028;-33
2022/03/23 00:20:38;;;;;;;9.77;5.55;;;0.90;99.90;;;;;;5056849;28;20346;-32
2022/03/23 00:23:04;;;;;;;7.78;4.95;;;1.00;99.90;;;;;;5057537;28;20040;-32
2022/03/23 00:25:30;;;;;;;9.77;5.45;;;1.00;99.90;;;;;;5055151;28;20040;-32
2022/03/23 00:27:56;;;;;;;12.55;4.90;;;1.00;99.90;;;;;;5051783;28;20488;-32
2022/03/23 00:30:21;;;;;;;6.60;4.72;;;0.90;99.90;;;;;;5051999;28;20060;-32
2022/03/23 00:32:47;;;;;;;8.43;4.50;;;0.70;99.90;;;;;;5050775;28;20132;-32
2022/03/23 00:35:13;;;;;;;12.95;6.15;;;0.70;99.90;;;;;;5050261;28;20078;-32
2022/03/23 00:37:39;;;;;;;5.93;4.50;;;0.60;99.90;;;;;;5051732;28;20048;-32
2022/03/23 00:40:05;;;;;;;10.90;5.72;;;0.80;99.90;;;;;;5049553;28;20490;-32
2022/03/23 00:42:31;;;;;;;6.50;4.18;;;0.80;99.90;;;;;;5056283;28;20036;-32
2022/03/23 00:44:57;;;;;;;6.43;4.40;;;0.80;99.90;;;;;;5048099;28;20032;-32
2022/03/23 00:47:23;;;;;;;8.57;5.57;;;0.70;99.90;;;;;;5052262;28;20020;-32
2022/03/23 00:49:49;;;;;;;6.35;4.80;;;0.50;99.90;;;;;;5051411;28;20443;-32
2022/03/23 00:52:14;;;;;;;9.50;5.28;;;0.30;99.90;;;;;;5055262;28;20642;-32
2022/03/23 00:54:40;;;;;;;5.25;4.20;;;0.40;99.90;;;;;;5052104;28;20029;-32
2022/03/23 00:57:07;;;;;;;6.97;4.47;;;0.40;99.90;;;;;;5047137;28;20076;-32
2022/03/23 00:59:33;;;;;;;5.60;5.03;;;0.30;99.90;;;;;;5050578;28;20033;-32
2022/03/23 01:01:59;;;;;;;7.55;4.88;;;0.10;99.90;;;;;;5051400;28;20090;-32
2022/03/23 01:04:25;;;;;;;5.88;4.28;;;-0.20;99.90;;;;;;5055429;28;20029;-32
2022/03/23 01:06:54;;;;;;;6.60;4.50;;;-0.30;99.90;;;;;;5055709;28;20033;-32
2022/03/23 01:09:23;;;;;;;7.97;5.30;;;-0.50;99.90;;;;;;5053833;28;20024;-32
2022/03/23 01:11:50;;;;;;;5.32;3.83;;;-0.50;99.90;;;;;;5052163;28;20065;-32
2022/03/23 01:14:17;;;;;;;6.68;4.97;;;-0.40;99.90;;;;;;5049283;28;20024;-33
2022/03/23 01:16:42;;;;;;;7.28;4.95;;;-0.40;99.90;;;;;;5046512;28;20083;-32
2022/03/23 01:19:09;;;;;;;7.88;5.38;;;-0.30;99.90;;;;;;5046099;28;20468;-32
2022/03/23 01:21:35;;;;;;;8.88;4.90;;;-0.10;99.90;;;;;;5049561;28;20044;-32
2022/03/23 01:24:00;;;;;;;7.72;4.97;;;0.20;99.90;;;;;;5049614;28;21907;-35
2022/03/23 01:26:26;;;;;;;8.15;5.47;;;0.30;99.90;;;;;;5047661;28;20048;-32
2022/03/23 01:28:52;;;;;;;7.07;5.30;;;0.40;99.90;;;;;;5045894;28;20060;-32
2022/03/23 01:31:17;;;;;;;10.50;5.70;;;0.40;99.90;;;;;;5050946;28;20093;-32
2022/03/23 01:33:43;;;;;;;11.35;5.55;;;0.40;99.90;;;;;;5048453;28;20108;-32
2022/03/23 01:36:10;;;;;;;9.98;4.38;;;0.30;99.90;;;;;;5048427;28;20041;-32
2022/03/23 01:38:36;;;;;;;13.02;5.45;;;0.30;99.90;;;;;;5052296;28;20048;-32
2022/03/23 01:41:02;;;;;;;9.18;6.03;;;0.30;99.90;;;;;;5050838;28;20049;-32
2022/03/23 01:43:29;;;;;;;10.00;5.43;;;0.40;99.90;;;;;;5049701;28;20120;-33
2022/03/23 01:45:55;;;;;;;5.78;5.10;;;0.50;99.90;;;;;;5056250;28;20032;-32
2022/03/23 01:48:21;;;;;;;9.88;6.15;;;0.30;99.90;;;;;;5057015;28;20158;-32
2022/03/23 01:50:47;;;;;;;9.23;4.95;;;0.40;99.90;;;;;;5061262;28;20045;-32
2022/03/23 01:53:13;;;;;;;10.70;5.57;;;0.50;99.90;;;;;;5059280;28;20037;-32
2022/03/23 01:55:39;;;;;;;7.75;4.15;;;0.50;99.90;;;;;;5063891;28;20041;-32
2022/03/23 01:58:05;;;;;;;9.00;5.70;;;0.40;99.90;;;;;;5060843;28;20020;-32
2022/03/23 02:00:31;;;;;;;8.30;5.43;;;0.30;99.90;;;;;;5061164;28;20032;-38
2022/03/23 02:03:00;;;;;;;8.85;5.63;;;0.30;99.90;;;;;;5065392;28;20041;-38
2022/03/23 02:05:26;;;;;;;5.60;5.10;;;0.30;99.90;;;;;;5067028;28;20056;-40
2022/03/23 02:07:52;;;;;;;6.20;4.70;;;0.30;99.90;;;;;;5068482;28;20068;-37
2022/03/23 02:10:17;;;;;;;4.53;4.00;;;0.20;99.90;;;;;;5064571;28;20039;-40
2022/03/23 02:12:43;;;;;;;3.13;2.83;;;-0.10;99.90;;;;;;5066703;28;20033;-37
2022/03/23 02:15:16;;;;;;;8.35;5.60;;;-0.90;99.90;;;;;;5066279;28;20049;-39
2022/03/23 02:17:42;;;;;;;7.10;4.97;;;-1.00;99.90;;;;;;5063838;28;20039;-37
2022/03/23 02:20:09;;;;;;;8.32;5.35;;;-0.90;99.90;;;;;;5065526;28;20048;-40
2022/03/23 02:22:35;;;;;;;6.75;4.90;;;-0.70;99.90;;;;;;5058363;28;20068;-38
2022/03/23 02:25:01;;;;;;;5.00;4.03;;;-0.60;99.90;;;;;;5062698;28;20568;-37
2022/03/23 02:27:28;;;;;;;6.68;4.57;;;-0.60;99.90;;;;;;5060879;28;20481;-38
2022/03/23 02:29:53;;;;;;;5.70;3.95;;;-0.50;99.90;;;;;;5059613;28;20055;-38
2022/03/23 02:32:20;;;;;;;6.93;3.85;;;-0.50;99.90;;;;;;5058308;28;20066;-37
2022/03/23 02:34:45;;;;;;;5.88;4.25;;;-0.40;99.90;;;;;;5059615;28;20166;-36
2022/03/23 02:37:11;;;;;;;7.60;4.25;;;-0.40;99.90;;;;;;5063760;28;20028;-37
2022/03/23 02:39:37;;;;;;;4.47;3.08;;;-0.40;99.90;;;;;;5064581;28;20477;-40
2022/03/23 02:42:03;;;;;;;6.20;4.72;;;-0.80;99.90;;;;;;5060939;28;20020;-38
2022/03/23 02:44:30;;;;;;;6.50;3.15;;;-1.00;99.90;;;;;;5065917;28;20478;-37
2022/03/23 02:46:56;;;;;;;9.50;4.30;;;-1.20;99.90;;;;;;5058909;28;20500;-39
2022/03/23 02:49:22;;;;;;;6.20;4.65;;;-1.40;99.90;;;;;;5057639;28;20094;-38
2022/03/23 02:51:48;;;;;;;13.15;4.18;;;-1.50;99.90;;;;;;5061441;28;20074;-40
2022/03/23 03:03:27;;;;;;;7.50;4.40;;;-1.30;99.90;;;;;;5059248;28;20035;-38
2022/03/23 03:05:53;;;;;;;7.00;4.82;;;-1.10;99.90;;;;;;5062093;28;20492;-40
2022/03/23 03:11:03;;;;;;;5.72;4.47;;;-0.90;99.90;;;;;;5059897;28;20039;-36
2022/03/23 03:13:29;;;;;;;9.13;4.60;;;-0.80;99.90;;;;;;5057266;28;20036;-38
2022/03/23 03:16:02;;;;;;;5.93;4.90;;;-0.80;99.90;;;;;;5058596;28;20381;-39
2022/03/23 03:18:32;;;;;;;5.57;4.43;;;-0.70;99.90;;;;;;5058884;28;20036;-40
2022/03/23 03:20:58;;;;;;;6.95;3.85;;;-0.70;99.90;;;;;;5059085;28;20024;-37
2022/03/23 03:23:24;;;;;;;5.40;4.05;;;-0.60;99.90;;;;;;5062344;28;20450;-36
2022/03/23 03:25:49;;;;;;;5.85;4.13;;;-0.70;99.90;;;;;;5062523;28;20115;-40
2022/03/23 03:28:15;;;;;;;4.47;4.07;;;-0.80;99.90;;;;;;5062527;28;20060;-38
2022/03/23 03:30:41;;;;;;;8.50;4.10;;;-0.80;99.90;;;;;;5059961;28;20036;-38
2022/03/23 03:33:06;;;;;;;6.65;5.00;;;-0.80;99.90;;;;;;5057346;28;20068;-37
2022/03/23 03:35:32;;;;;;;5.15;3.83;;;-0.80;99.90;;;;;;5059336;28;20027;-40
2022/03/23 03:37:58;;;;;;;4.95;4.13;;;-0.80;99.90;;;;;;5063708;28;20055;-41
2022/03/23 03:40:24;;;;;;;7.15;3.55;;;-0.90;99.90;;;;;;5063398;28;20048;-37
2022/03/23 03:42:50;;;;;;;6.22;4.18;;;-1.10;99.90;;;;;;5062976;28;20071;-41
2022/03/23 03:45:15;;;;;;;3.80;3.58;;;-1.10;99.90;;;;;;5059630;28;20040;-39
2022/03/23 03:47:41;;;;;;;6.05;4.43;;;-1.20;99.90;;;;;;5062009;28;20059;-38
2022/03/23 03:50:07;;;;;;;7.13;5.32;;;-1.30;99.90;;;;;;5057803;28;20539;-40
2022/03/23 03:52:33;;;;;;;14.25;5.13;;;-1.20;99.90;;;;;;5062798;28;20080;-39
2022/03/23 03:54:58;;;;;;;7.63;4.75;;;-1.10;99.90;;;;;;5060124;28;20373;-38
2022/03/23 03:57:24;;;;;;;5.20;4.07;;;-1.20;99.90;;;;;;5059756;28;20108;-37
2022/03/23 03:59:49;;;;;;;5.65;4.35;;;-1.10;99.90;;;;;;5062735;28;20082;-38
2022/03/23 04:02:15;;;;;;;4.35;3.17;;;-1.10;99.90;;;;;;5059925;27;20055;-38
2022/03/23 04:04:41;;;;;;;4.57;3.70;;;-1.20;99.90;;;;;;5058978;28;20246;-39
2022/03/23 04:07:06;;;;;;;4.35;2.47;;;-1.40;99.90;;;;;;5060959;28;20040;-37
2022/03/23 04:09:32;;;;;;;7.60;4.72;;;-1.60;99.90;;;;;;5060723;28;20033;-40
2022/03/23 04:11:58;;;;;;;6.88;4.53;;;-1.60;99.90;;;;;;5063531;28;20421;-39
2022/03/23 04:14:23;;;;;;;7.40;4.25;;;-1.50;99.90;;;;;;5061353;28;20033;-39
2022/03/23 04:16:49;;;;;;;6.07;3.88;;;-1.70;99.90;;;;;;5058855;28;20043;-40
2022/03/23 04:19:15;;;;;;;5.97;4.05;;;-1.90;99.90;;;;;;5059323;28;20028;-38
2022/03/23 04:21:40;;;;;;;10.55;5.93;;;-2.00;99.90;;;;;;5060966;28;20064;-40
2022/03/23 04:24:06;;;;;;;8.02;5.18;;;-1.70;99.90;;;;;;5057280;28;20044;-38
2022/03/23 04:26:32;;;;;;;5.32;4.40;;;-1.60;99.90;;;;;;5061174;28;20603;-40
2022/03/23 04:28:57;;;;;;;9.48;5.25;;;-1.50;99.90;;;;;;5057000;28;20044;-37
2022/03/23 04:31:23;;;;;;;7.13;4.35;;;-1.50;99.90;;;;;;5061130;28;20158;-38
2022/03/23 04:33:48;;;;;;;8.60;4.63;;;-1.40;99.90;;;;;;5063669;28;20115;-37
2022/03/23 04:36:14;;;;;;;8.02;4.72;;;-1.30;99.90;;;;;;5060261;28;20032;-38
2022/03/23 04:38:40;;;;;;;4.18;3.50;;;-1.20;99.90;;;;;;5063663;28;20032;-38
2022/03/23 04:41:06;;;;;;;6.90;4.78;;;-1.20;99.90;;;;;;5058272;28;20829;-40
2022/03/23 04:43:32;;;;;;;8.38;5.30;;;-1.30;99.90;;;;;;5060363;28;20481;-36
2022/03/23 04:45:58;;;;;;;8.60;5.35;;;-1.30;99.90;;;;;;5059371;28;20145;-37
2022/03/23 04:48:24;;;;;;;7.75;4.82;;;-1.30;99.90;;;;;;5059143;28;20032;-39
2022/03/23 04:50:49;;;;;;;13.88;5.28;;;-1.20;99.90;;;;;;5059356;28;20741;-38
2022/03/23 04:53:16;;;;;;;6.35;5.25;;;-1.30;99.90;;;;;;5061948;28;20036;-37
2022/03/23 04:55:41;;;;;;;10.10;5.10;;;-1.50;99.90;;;;;;5059523;28;20032;-40
2022/03/23 04:58:07;;;;;;;10.10;5.32;;;-1.80;99.90;;;;;;5056459;28;20024;-37
2022/03/23 05:00:34;;;;;;;6.57;4.13;;;-1.90;99.90;;;;;;5056568;28;20081;-36
2022/03/23 05:03:00;;;;;;;10.88;5.25;;;-1.80;99.90;;;;;;5056144;28;20447;-40
2022/03/23 05:05:26;;;;;;;8.02;4.80;;;-1.70;99.90;;;;;;5060910;28;20032;-37
2022/03/23 05:07:51;;;;;;;5.60;5.07;;;-1.70;99.90;;;;;;5058352;28;20035;-39
2022/03/23 05:10:17;;;;;;;9.65;4.68;;;-1.70;99.90;;;;;;5058461;28;20040;-38
2022/03/23 05:12:44;;;;;;;6.38;4.07;;;-1.70;99.90;;;;;;5065081;28;20063;-39
2022/03/23 05:15:10;;;;;;;6.93;4.55;;;-1.90;99.90;;;;;;5062389;28;20055;-37
2022/03/23 05:17:37;;;;;;;7.47;4.53;;;-1.90;99.90;;;;;;5063206;28;20032;-40
2022/03/23 05:20:04;;;;;;;4.10;3.50;;;-2.00;99.90;;;;;;5064005;28;20029;-37
2022/03/23 05:22:30;;;;;;;10.23;5.65;;;-2.10;99.90;;;;;;5065355;28;20119;-37
2022/03/23 05:24:56;;;;;;;6.90;4.38;;;-2.20;99.90;;;;;;5060440;28;20112;-39
2022/03/23 05:27:22;;;;;;;5.57;4.57;;;-2.10;99.90;;;;;;5062925;28;20074;-37
2022/03/23 05:29:48;;;;;;;9.88;4.90;;;-2.10;99.90;;;;;;5065405;28;20131;-37
2022/03/23 05:32:18;;;;;;;5.05;4.32;;;-1.90;99.90;;;;;;5061639;28;20041;-37
2022/03/23 05:34:48;;;;;;;4.32;3.10;;;-1.90;99.90;;;;;;5061932;28;20083;-38
2022/03/23 05:37:14;;;;;;;6.60;3.95;;;-2.10;99.90;;;;;;5066328;28;20017;-39
2022/03/23 05:39:40;;;;;;;5.82;4.22;;;-2.20;99.90;;;;;;5067808;28;20032;-38
2022/03/23 05:42:07;;;;;;;7.82;4.85;;;-2.10;99.90;;;;;;5060788;28;20044;-38
2022/03/23 05:44:34;;;;;;;6.93;4.72;;;-2.00;99.90;;;;;;5062996;28;20028;-39
2022/03/23 05:46:59;;;;;;;6.05;3.78;;;-1.90;99.90;;;;;;5061928;28;20051;-39
2022/03/23 05:49:25;;;;;;;3.45;3.05;;;-2.00;99.90;;;;;;5059605;28;20052;-40
2022/03/23 05:51:52;;;;;;;5.50;3.60;;;-2.10;99.90;;;;;;5064660;28;20063;-40
2022/03/23 05:54:18;;;;;;;5.45;4.50;;;-2.10;99.90;;;;;;5066149;28;20041;-40
2022/03/23 05:56:44;;;;;;;6.38;4.30;;;-2.10;99.90;;;;;;5062148;28;20032;-39
2022/03/23 05:59:09;;;;;;;10.48;6.05;;;-2.00;99.90;;;;;;5058255;28;20493;-40
2022/03/23 06:01:35;;;;;;;8.63;5.03;;;-1.80;99.90;;;;;;5056867;28;20921;-38
2022/03/23 06:04:01;;;;;;;7.35;4.50;;;-1.70;99.90;;;;;;5062126;28;20067;-41
2022/03/23 06:06:26;;;;;;;5.78;4.47;;;-1.60;99.90;;;;;;5058114;28;20499;-38
2022/03/23 06:08:52;;;;;;;6.15;4.68;;;-1.50;99.90;;;;;;5055396;28;20036;-38
2022/03/23 06:11:18;;;;;;;8.90;5.97;;;-1.50;99.90;;;;;;5054561;28;20044;-37
2022/03/23 06:13:44;;;;;;;10.48;5.30;;;-1.40;99.90;;;;;;5060520;28;20024;-39
2022/03/23 06:16:10;;;;;;;7.22;4.70;;;-1.30;99.90;;;;;;5055622;28;20032;-41
2022/03/23 06:18:36;;;;;;;7.30;5.07;;;-1.20;99.90;;;;;;5057229;28;20029;-39
2022/03/23 06:21:03;;;;;;;5.53;3.65;;;-1.20;99.90;;;;;;5057123;28;20024;-39
2022/03/23 06:23:29;;;;;;;6.00;3.22;;;-1.10;99.90;;;;;;5054814;28;20549;-39
2022/03/23 06:25:55;;;;;;;4.75;3.95;;;-1.10;99.90;;;;;;5055394;28;20030;-39
2022/03/23 06:28:21;;;;;;;8.30;6.07;;;-1.10;99.90;;;;;;5055977;28;20053;-39
2022/03/23 06:30:47;;;;;;;11.68;6.00;;;-1.00;99.90;;;;;;5052786;28;20553;-40
2022/03/23 06:33:13;;;;;;;11.18;5.45;;;-0.80;99.90;;;;;;5051309;28;20043;-37
2022/03/23 06:35:38;;;;;;;14.43;6.82;;;-0.60;99.90;;;;;;5062792;28;20389;-36
2022/03/23 06:38:04;;;;;;;6.85;5.13;;;-0.50;99.90;;;;;;5062860;28;20128;-38
2022/03/23 06:40:30;;;;;;;10.02;7.05;;;-0.30;99.90;;;;;;5061608;28;20032;-38
2022/03/23 06:42:55;;;;;;;9.75;4.25;;;-0.10;99.90;;;;;;5059959;28;22240;-40
2022/03/23 06:45:21;;;;;;;16.00;7.72;;;0.00;99.90;;;;;;5060421;28;20410;-40
2022/03/23 06:47:46;;;;;;;7.57;5.60;;;0.20;99.90;;;;;;5058611;28;20098;-40
2022/03/23 06:50:12;;;;;;;12.90;7.47;;;0.30;99.90;;;;;;5061406;28;20699;-37
2022/03/23 06:52:38;;;;;;;15.23;7.72;;;0.50;99.90;;;;;;5062451;28;20032;-38
2022/03/23 06:55:04;;;;;;;9.88;6.93;;;0.60;99.90;;;;;;5061834;28;20040;-40
2022/03/23 06:57:30;;;;;;;12.75;7.18;;;0.80;99.90;;;;;;5058619;28;20412;-40
2022/03/23 06:59:55;;;;;;;9.40;5.55;;;1.00;99.90;;;;;;5061696;28;20028;-37
2022/03/23 07:02:21;;;;;;;11.45;6.55;;;1.00;99.90;;;;;;5054019;28;20102;-37
2022/03/23 07:04:46;;;;;;;3.78;3.33;;;1.10;99.90;;;;;;5057801;28;20511;-37
2022/03/23 07:07:12;;;;;;;10.40;6.00;;;1.20;99.90;;;;;;5051785;28;20071;-40
2022/03/23 07:09:41;;;;;;;8.55;5.43;;;1.30;99.90;;;;;;5055146;28;20032;-40
2022/03/23 07:12:09;;;;;;;10.57;5.57;;;1.40;99.90;;;;;;5058002;28;20041;-37
2022/03/23 07:14:36;;;;;;;11.85;5.80;;;1.40;99.90;;;;;;5059194;28;20025;-41
2022/03/23 07:17:03;;;;;;;10.55;6.82;;;1.50;99.90;;;;;;5063696;28;20040;-40
2022/03/23 07:19:29;;;;;;;8.32;4.97;;;1.50;99.90;;;;;;5066417;28;20579;-40
2022/03/23 07:21:55;;;;;;;4.38;3.67;;;1.70;99.90;;;;;;5064973;28;20041;-38
2022/03/23 07:24:20;;;;;;;11.15;5.88;;;1.80;99.90;;;;;;5064162;28;20618;-40
2022/03/23 07:26:46;;;;;;;11.30;6.15;;;1.90;99.90;;;;;;5062956;28;20032;-40
2022/03/23 07:29:13;;;;;;;8.57;6.50;;;2.00;99.90;;;;;;5061816;28;20509;-39
2022/03/23 07:31:39;;;;;;;11.05;6.80;;;2.10;99.90;;;;;;5063567;28;20048;-40
2022/03/23 07:34:05;;;;;;;10.68;6.20;;;2.20;99.90;;;;;;5059834;28;20090;-38
2022/03/23 07:36:30;;;;;;;3.90;3.30;;;2.40;99.90;;;;;;5064895;28;20029;-39
2022/03/23 07:38:57;;;;;;;9.05;6.32;;;2.50;99.90;;;;;;5064470;28;20081;-37
2022/03/23 07:41:23;;;;;;;7.82;5.15;;;2.60;99.90;;;;;;5082520;28;20105;-37
2022/03/23 07:43:49;;;;;;;14.25;7.57;;;2.80;99.90;;;;;;5067741;28;20039;-40
2022/03/23 07:46:15;;;;;;;13.88;7.35;;;2.90;99.90;;;;;;5062378;28;20579;-37
2022/03/23 07:48:41;;;;;;;11.05;6.75;;;3.00;99.90;;;;;;5066695;28;20050;-40
2022/03/23 07:51:07;;;;;;;13.15;7.72;;;3.30;99.90;;;;;;5068694;28;20029;-37
2022/03/23 07:53:33;;;;;;;12.20;7.40;;;3.60;99.90;;;;;;5071855;28;20057;-36
2022/03/23 07:55:59;;;;;;;11.02;7.47;;;3.90;99.90;;;;;;5073964;28;20024;-38
2022/03/23 07:58:25;;;;;;;10.73;6.78;;;4.10;99.10;;;;;;5073026;28;20085;-39
2022/03/23 08:00:52;;;;;;;11.70;7.40;;;4.50;97.40;;;;;;5075225;28;20036;-38
2022/03/23 08:03:17;;;;;;;18.52;9.02;;;4.70;97.40;;;;;;5075714;28;20500;-39
2022/03/23 08:05:43;;;;;;;19.27;8.48;;;4.90;96.40;;;;;;5076039;28;20024;-37
2022/03/23 08:08:10;;;;;;;10.18;5.65;;;5.10;93.70;;;;;;5072640;28;20032;-36
2022/03/23 08:10:43;;;;;;;10.85;7.47;;;5.20;91.70;;;;;;5075550;28;20044;-37
2022/03/23 08:13:12;;;;;;;11.38;6.63;;;5.40;91.20;;;;;;5072494;28;20029;-40
2022/03/23 08:15:39;;;;;;;8.43;5.22;;;5.60;91.00;;;;;;5075875;28;20028;-38
2022/03/23 08:18:06;;;;;;;12.65;7.95;;;5.70;90.90;;;;;;5073173;28;20023;-39
2022/03/23 08:20:37;;;;;;;13.80;8.32;;;5.80;90.20;;;;;;5070739;28;20141;-37
2022/03/23 08:23:06;;;;;;;8.00;4.63;;;6.00;92.50;;;;;;5077167;28;20029;-38
2022/03/23 08:25:33;;;;;;;11.13;8.05;;;6.30;85.50;;;;;;5073135;28;20032;-38
2022/03/23 08:28:00;;;;;;;17.35;8.75;;;6.50;87.40;;;;;;5070181;28;20025;-37
2022/03/23 08:30:29;;;;;;;14.40;8.88;;;6.70;90.60;;;;;;5074207;28;20075;-39
2022/03/23 08:32:55;;;;;;;13.65;8.02;;;6.90;83.30;;;;;;5045604;28;20113;-33
2022/03/23 08:35:21;;;;;;;13.07;7.53;;;7.10;81.50;;;;;;5061702;28;20021;-34
2022/03/23 08:37:48;;;;;;;14.27;6.82;;;7.20;75.80;;;;;;5059310;28;20040;-35
2022/03/23 08:40:21;;;;;;;16.42;8.25;;;7.40;70.50;;;;;;5062845;28;20024;-33
2022/03/23 08:42:48;;;;;;;14.15;8.45;;;7.60;75.60;;;;;;5061054;28;20041;-34
2022/03/23 08:45:15;;;;;;;12.23;7.70;;;7.80;71.00;;;;;;5063690;28;20025;-34
2022/03/23 08:47:42;;;;;;;14.20;7.93;;;8.10;71.70;;;;;;5059446;28;20840;-34
2022/03/23 08:50:09;;;;;;;13.73;7.25;;;8.40;65.80;;;;;;5059685;28;20028;-33
2022/03/23 08:52:36;;;;;;;12.13;7.97;;;8.50;67.40;;;;;;5059161;28;20066;-34
2022/03/23 08:55:03;;;;;;;13.95;8.70;;;8.50;65.20;;;;;;5063081;28;20025;-33
2022/03/23 08:57:29;;;;;;;15.15;9.32;;;8.70;65.20;;;;;;5058795;28;20440;-33
2022/03/23 08:59:55;;;;;;;11.52;7.60;;;8.90;60.00;;;;;;5062766;28;20028;-34
2022/03/23 09:02:20;;;;;;;11.27;7.93;;;9.10;62.80;;;;;;5061740;28;20115;-34
2022/03/23 09:04:46;;;;;;;11.85;7.47;;;9.40;59.30;;;;;;5060568;28;20033;-34
2022/03/23 09:07:11;;;;;;;11.98;7.40;;;9.60;57.90;;;;;;5059374;28;20469;-34
2022/03/23 09:09:37;;;;;;;14.18;9.07;;;9.80;58.00;;;;;;5056216;28;20040;-34
2022/03/23 09:12:03;;;;;;;13.55;8.13;;;10.00;57.10;;;;;;5065075;28;20043;-34
2022/03/23 09:14:29;;;;;;;14.32;8.05;;;10.10;57.50;;;;;;5057445;28;20477;-34
2022/03/23 09:16:54;;;;;;;15.63;8.75;;;10.30;57.00;;;;;;5061606;28;20033;-33
2022/03/23 09:19:20;;;;;;;15.18;7.57;;;10.60;54.60;;;;;;5058904;28;20025;-34
2022/03/23 09:21:49;;;;;;;11.50;8.00;;;10.90;53.30;;;;;;5059912;28;20029;-34
2022/03/23 09:24:15;;;;;;;11.70;7.38;;;11.00;52.30;;;;;;5056511;28;20422;-34
2022/03/23 09:26:41;;;;;;;11.15;7.75;;;11.20;50.90;;;;;;5060738;28;20082;-34
2022/03/23 09:29:10;;;;;;;14.90;7.78;;;11.40;53.50;;;;;;5059268;28;20126;-35
2022/03/23 09:31:37;;;;;;;11.68;7.32;;;11.70;48.30;;;;;;5057548;28;20707;-34
2022/03/23 09:34:03;;;;;;;12.32;7.78;;;11.90;50.20;;;;;;5058965;28;20436;-34
2022/03/23 09:39:14;;;;;;;8.45;6.40;;;12.50;48.40;;;;;;5062199;28;20547;-33
2022/03/23 09:41:43;;;;;;;10.70;7.68;;;12.50;43.90;;;;;;5058703;28;20029;-33
2022/03/23 09:44:09;;;;;;;10.48;7.63;;;12.60;43.80;;;;;;5061127;28;20475;-35
2022/03/23 09:46:35;;;;;;;13.23;7.75;;;12.60;46.60;;;;;;5057427;28;20032;-33
2022/03/23 09:49:01;;;;;;;15.48;8.48;;;12.70;45.80;;;;;;5059870;28;20039;-33
2022/03/23 09:51:28;;;;;;;11.32;6.95;;;12.90;45.70;;;;;;5060202;28;20028;-33
2022/03/23 09:53:53;;;;;;;12.73;7.57;;;13.00;44.30;;;;;;5053456;28;20032;-35
2022/03/23 09:56:19;;;;;;;13.80;7.72;;;13.30;44.30;;;;;;5058273;28;20036;-34
2022/03/23 09:58:45;;;;;;;17.15;8.27;;;13.30;43.10;;;;;;5060174;28;20123;-36
2022/03/23 10:01:34;;;;;;;14.98;8.25;;;13.40;42.00;;;;;;5059657;28;20110;-33
2022/03/23 10:04:38;;;;;;;15.30;8.18;;;13.40;42.60;;;;;;5058894;28;20024;-34
2022/03/23 10:07:27;;;;;;;13.52;8.38;;;13.80;44.20;;;;;;5058617;28;20052;-33
2022/03/23 10:10:43;;;;;;;13.73;8.13;;;13.70;41.80;;;;;;5058511;28;20123;-33
2022/03/23 10:13:46;;;;;;;15.98;8.48;;;13.50;41.00;;;;;;5062656;28;20043;-34
2022/03/23 10:16:49;;;;;;;14.60;8.32;;;13.60;42.60;;;;;;5055001;28;20410;-33
2022/03/23 10:19:14;;;;;;;11.50;8.07;;;13.80;42.70;;;;;;5056182;28;20489;-34
2022/03/23 10:21:40;;;;;;;13.55;7.57;;;13.90;44.10;;;;;;5060616;28;20044;-33
2022/03/23 10:24:05;;;;;;;12.35;7.57;;;14.00;42.10;;;;;;5061805;28;20031;-33
2022/03/23 10:26:36;;;;;;;13.50;8.30;;;14.20;42.40;;;;;;5060715;28;20024;-33
2022/03/23 10:29:02;;;;;;;13.63;8.20;;;14.40;41.90;;;;;;5059261;28;20039;-34
2022/03/23 10:31:29;;;;;;;14.48;7.93;;;14.40;42.30;;;;;;5059167;28;20115;-34
2022/03/23 10:34:08;;;;;;;11.13;8.15;;;14.50;41.50;;;;;;5057184;28;20020;-34
2022/03/23 10:36:40;;;;;;;13.65;8.57;;;14.50;40.30;;;;;;5059114;28;20028;-33
2022/03/23 10:39:10;;;;;;;11.63;7.63;;;14.80;40.30;;;;;;5059214;28;20359;-36
2022/03/23 10:41:36;;;;;;;10.80;7.47;;;14.90;36.50;;;;;;5061623;28;20036;-33
2022/03/23 10:44:02;;;;;;;12.27;8.13;;;15.10;38.60;;;;;;5060691;28;20036;-34
2022/03/23 10:46:27;;;;;;;12.55;8.55;;;15.20;37.40;;;;;;5060658;28;20555;-35
2022/03/23 10:49:02;;;;;;;14.07;8.18;;;14.80;36.80;;;;;;5063881;28;21703;-36
2022/03/23 10:51:36;;;;;;;11.82;8.05;;;14.80;37.80;;;;;;5056085;28;20043;-34
2022/03/23 10:54:19;;;;;;;14.55;8.75;;;15.10;40.90;;;;;;5056480;28;20029;-35
2022/03/23 10:56:45;;;;;;;13.57;8.38;;;15.20;38.80;;;;;;5054615;28;20403;-34
2022/03/23 10:59:26;;;;;;;12.70;8.55;;;15.30;38.90;;;;;;5055614;28;20025;-34
2022/03/23 11:01:58;;;;;;;16.27;8.95;;;15.30;37.90;;;;;;5058554;27;20410;-35
2022/03/23 11:04:29;;;;;;;14.43;9.18;;;15.10;37.20;;;;;;5057455;28;20393;-33
2022/03/23 11:06:58;;;;;;;13.15;8.45;;;15.30;42.10;;;;;;5061175;28;20561;-35
2022/03/23 11:18:09;;;;;;;14.70;8.70;;;15.50;39.50;;;;;;5058408;28;20043;-33
2022/03/23 11:20:43;;;;;;;16.90;9.00;;;15.80;40.90;;;;;;5057003;28;20024;-33
2022/03/23 11:23:26;;;;;;;16.23;8.68;;;15.80;38.70;;;;;;5060635;28;20029;-33
2022/03/23 11:25:56;;;;;;;13.88;8.40;;;15.90;40.90;;;;;;5061714;28;20040;-34
2022/03/23 11:28:23;;;;;;;13.93;9.15;;;15.90;38.20;;;;;;5060219;28;20847;-35
2022/03/23 11:30:50;;;;;;;12.38;7.82;;;15.90;38.70;;;;;;5064150;28;20135;-33
2022/03/23 11:33:21;;;;;;;16.83;9.18;;;15.70;38.30;;;;;;5061961;28;20036;-34
2022/03/23 11:35:49;;;;;;;16.27;9.93;;;15.80;38.10;;;;;;5060410;28;20593;-34
2022/03/23 11:38:20;;;;;;;16.75;8.93;;;15.80;37.50;;;;;;5066104;28;20119;-36
2022/03/23 11:40:47;;;;;;;16.10;9.18;;;15.80;36.80;;;;;;5057704;28;20526;-34
2022/03/23 11:43:16;;;;;;;11.30;8.55;;;15.70;36.70;;;;;;5058916;28;20052;-35
2022/03/23 11:45:43;;;;;;;12.93;8.55;;;15.70;35.90;;;;;;5057748;28;20035;-34
2022/03/23 11:48:23;;;;;;;15.55;9.02;;;15.70;34.20;;;;;;5054743;28;20040;-33
2022/03/23 11:51:14;;;;;;;18.02;10.15;;;16.00;35.80;;;;;;5056138;28;20036;-35
2022/03/23 11:54:00;;;;;;;13.15;8.65;;;15.90;36.30;;;;;;5062995;28;20383;-34
2022/03/23 11:56:43;;;;;;;14.30;8.43;;;15.90;35.60;;;;;;5057065;28;20052;-34
2022/03/23 11:59:19;;;;;;;12.77;9.05;;;15.80;36.30;;;;;;5062524;28;20489;-34
2022/03/23 12:01:45;;;;;;;13.70;8.23;;;16.20;38.10;;;;;;5060879;28;20040;-33
2022/03/23 12:04:16;;;;;;;14.57;9.07;;;16.10;34.10;;;;;;5058019;28;20032;-35
2022/03/23 12:06:44;;;;;;;12.65;8.45;;;15.90;36.10;;;;;;5057166;28;20075;-34
2022/03/23 12:09:35;;;;;;;14.18;9.65;;;15.90;35.50;;;;;;5059515;28;20025;-34
2022/03/23 12:12:11;;;;;;;13.35;8.20;;;16.10;36.10;;;;;;5059734;28;20648;-34
2022/03/23 12:14:38;;;;;;;13.55;9.10;;;16.10;36.00;;;;;;5055493;28;20032;-33
2022/03/23 12:17:27;;;;;;;16.08;8.82;;;16.20;36.00;;;;;;5055659;28;20032;-34
2022/03/23 12:19:57;;;;;;;13.20;9.43;;;16.00;34.20;;;;;;5052694;28;20040;-33
2022/03/23 12:22:32;;;;;;;14.02;8.68;;;16.00;35.90;;;;;;5057942;28;20032;-34
2022/03/23 12:25:20;;;;;;;13.48;9.10;;;16.10;36.00;;;;;;5057052;28;20124;-34
2022/03/23 12:27:50;;;;;;;13.75;8.30;;;16.40;37.80;;;;;;5063230;28;20025;-33
2022/03/23 12:30:24;;;;;;;13.82;8.73;;;16.40;34.70;;;;;;5059021;28;20055;-34
2022/03/23 12:32:51;;;;;;;15.57;9.27;;;16.20;35.30;;;;;;5053333;28;20406;-34
2022/03/23 12:35:37;;;;;;;14.48;9.65;;;16.20;34.30;;;;;;5053490;28;20040;-33
2022/03/23 12:38:04;;;;;;;16.17;9.88;;;16.00;32.30;;;;;;5057874;28;20025;-33
2022/03/23 12:40:57;;;;;;;15.85;8.45;;;16.00;32.90;;;;;;5055590;28;20028;-35
2022/03/23 12:43:40;;;;;;;12.25;8.07;;;16.20;34.90;;;;;;5056252;28;20040;-35
2022/03/23 12:46:22;;;;;;;16.27;8.88;;;16.20;35.10;;;;;;5058664;28;20470;-35
2022/03/23 12:57:56;;;;;;;13.70;8.00;;;16.50;34.50;;;;;;5056322;28;20289;-34
2022/03/23 13:00:25;;;;;;;14.88;8.77;;;16.60;33.80;;;;;;5052524;28;20036;-34
2022/03/23 13:03:20;;;;;;;17.13;9.65;;;16.40;32.30;;;;;;5053453;28;20418;-34
2022/03/23 13:05:58;;;;;;;17.27;9.57;;;16.50;33.40;;;;;;5040995;28;21001;-33
2022/03/23 13:08:27;;;;;;;14.98;9.15;;;16.40;33.00;;;;;;5056166;28;20050;-33
2022/03/23 13:11:00;;;;;;;14.55;8.90;;;16.40;32.50;;;;;;5051982;28;20167;-33
2022/03/23 13:13:27;;;;;;;15.18;8.85;;;16.30;30.90;;;;;;5055823;28;20029;-33
2022/03/23 13:15:53;;;;;;;14.13;9.23;;;16.30;30.90;;;;;;5056123;28;20020;-33
2022/03/23 13:18:30;;;;;;;14.13;8.93;;;16.60;36.50;;;;;;5056551;28;20055;-36
2022/03/23 13:20:57;;;;;;;15.20;9.02;;;16.80;36.60;;;;;;5055899;28;20049;-33
2022/03/23 13:23:25;;;;;;;15.35;10.32;;;16.70;31.90;;;;;;5056277;28;20353;-33